Time;durP1;ratioP1;P1;durP2;ratioP2;P2;SDS_P1;SDS_P2;PMS_P1;PMS_P2;Temp;Humidity;BMP_temperature;BMP_pressure;BME280_temperature;BME280_humidity;BME280_pressure;Samples;Min_cycle;Max_cycle;Signal;HPM_P1;HPM_P2
2023/10/02 00:02:40;;;;;;;;;;;;;;;;;;6270180;22;19919;-92
2023/10/02 00:05:05;;;;;;;;;;;;;;;;;;6295879;22;19943;-92
2023/10/02 00:07:33;;;;;;;;;;;;;;;;;;6267937;22;20464;-93
2023/10/02 00:09:59;;;;;;;;;;;;;;;;;;6296031;22;19915;-92
2023/10/02 00:12:28;;;;;;;;;;;;;;;;;;6296232;22;19925;-92
2023/10/02 00:14:55;;;;;;;;;;;;;;;;;;6270101;22;19992;-92
2023/10/02 00:17:22;;;;;;;;;;;;;;;;;;6296677;22;19944;-93
2023/10/02 00:19:49;;;;;;;;;;;;;;;;;;6263627;22;19925;-91
2023/10/02 00:25:00;;;;;;;;;;;;;;;;;;6296938;22;20274;-92
2023/10/02 00:27:28;;;;;;;;;;;;;;;;;;6268832;22;20008;-92
2023/10/02 00:29:58;;;;;;;;;;;;;;;;;;6270463;22;19954;-91
2023/10/02 00:32:26;;;;;;;;;;;;;;;;;;6269146;22;19919;-92
2023/10/02 00:34:52;;;;;;;;;;;;;;;;;;6265748;22;20005;-92
2023/10/02 00:37:18;;;;;;;;;;;;;;;;;;6268417;22;20359;-92
2023/10/02 00:39:47;;;;;;;;;;;;;;;;;;6266911;22;19922;-92
2023/10/02 00:42:16;;;;;;;;;;;;;;;;;;6270013;22;19929;-92
2023/10/02 00:44:51;;;;;;;;;;;;;;;;;;6266359;22;19914;-91
2023/10/02 00:47:35;;;;;;;;;;;;;;;;;;6268873;22;20020;-92
2023/10/02 00:50:06;;;;;;;;;;;;;;;;;;6242770;22;19930;-91
2023/10/02 00:52:33;;;;;;;;;;;;;;;;;;6266191;22;19925;-92
2023/10/02 00:55:05;;;;;;;;;;;;;;;;;;6266627;22;19942;-92
2023/10/02 00:57:31;;;;;;;;;;;;;;;;;;6266117;22;20484;-91
2023/10/02 00:59:59;;;;;;;;;;;;;;;;;;6269221;22;19918;-91
2023/10/02 01:02:25;;;;;;;;;;;;;;;;;;6266504;22;19919;-91
2023/10/02 01:04:56;;;;;;;;;;;;;;;;;;6264529;22;20303;-92
2023/10/02 01:07:22;;;;;;;;;;;;;;;;;;6268749;22;19989;-92
2023/10/02 01:10:06;;;;;;;;;;;;;;;;;;6268323;22;20662;-92
2023/10/02 01:12:43;;;;;;;;;;;;;;;;;;6265847;22;19986;-92
2023/10/02 01:15:11;;;;;;;;;;;;;;;;;;6267499;22;19923;-92
2023/10/02 01:17:39;;;;;;;;;;;;;;;;;;6241614;22;20347;-93
2023/10/02 01:20:09;;;;;;;;;;;;;;;;;;6268203;22;19919;-92
2023/10/02 01:22:35;;;;;;;;;;;;;;;;;;6265970;22;19915;-92
2023/10/02 01:25:13;;;;;;;;;;;;;;;;;;6243007;22;19931;-92
2023/10/02 01:27:46;;;;;;;;;;;;;;;;;;6241233;22;19957;-92
2023/10/02 01:30:16;;;;;;;;;;;;;;;;;;6243925;22;20412;-91
2023/10/02 01:32:42;;;;;;;;;;;;;;;;;;6266641;22;20234;-92
2023/10/02 01:35:08;;;;;;;;;;;;;;;;;;6268049;22;20263;-92
2023/10/02 01:37:34;;;;;;;;;;;;;;;;;;6241100;22;19919;-92
2023/10/02 01:40:28;;;;;;;;;;;;;;;;;;6243419;22;19919;-92
2023/10/02 01:42:45;;;;;;;;;;;;;;;;;;6265615;22;19950;-91
2023/10/02 01:45:11;;;;;;;;;;;;;;;;;;6268697;22;20381;-92
2023/10/02 01:47:41;;;;;;;;;;;;;;;;;;6240542;22;19923;-92
2023/10/02 01:50:09;;;;;;;;;;;;;;;;;;6243308;22;19942;-92
2023/10/02 01:52:35;;;;;;;;;;;;;;;;;;6265365;22;19922;-91
2023/10/02 01:55:02;;;;;;;;;;;;;;;;;;6267252;22;19923;-92
2023/10/02 01:57:29;;;;;;;;;;;;;;;;;;6266947;22;19962;-92
2023/10/02 02:00:13;;;;;;;;;;;;;;;;;;6270169;22;19922;-92
2023/10/02 02:02:41;;;;;;;;;;;;;;;;;;6241545;22;19918;-92
2023/10/02 02:05:13;;;;;;;;;;;;;;;;;;6240967;22;19919;-92
2023/10/02 02:07:39;;;;;;;;;;;;;;;;;;6241068;22;19926;-91
2023/10/02 02:10:06;;;;;;;;;;;;;;;;;;6243971;22;19919;-91
2023/10/02 02:12:44;;;;;;;;;;;;;;;;;;6243587;22;19994;-92
2023/10/02 02:15:11;;;;;;;;;;;;;;;;;;6268726;22;20017;-91
2023/10/02 02:17:37;;;;;;;;;;;;;;;;;;6242127;22;19922;-93
2023/10/02 02:20:43;;;;;;;;;;;;;;;;;;6265612;22;19923;-92
2023/10/02 02:23:07;;;;;;;;;;;;;;;;;;6269000;22;19968;-91
2023/10/02 02:25:33;;;;;;;;;;;;;;;;;;6263539;22;19994;-92
2023/10/02 02:27:58;;;;;;;;;;;;;;;;;;6272427;22;19950;-92
2023/10/02 02:30:24;;;;;;;;;;;;;;;;;;6278899;22;20247;-92
2023/10/02 02:32:54;;;;;;;;;;;;;;;;;;6250728;22;20339;-92
2023/10/02 02:35:21;;;;;;;;;;;;;;;;;;6249226;22;19978;-92
2023/10/02 02:37:49;;;;;;;;;;;;;;;;;;6238729;22;20969;-92
2023/10/02 02:40:22;;;;;;;;;;;;;;;;;;6267949;22;19933;-92
2023/10/02 02:42:50;;;;;;;;;;;;;;;;;;6239791;22;20251;-92
2023/10/02 02:45:28;;;;;;;;;;;;;;;;;;6267044;22;19919;-92
2023/10/02 02:47:54;;;;;;;;;;;;;;;;;;6266780;22;19922;-92
2023/10/02 02:50:28;;;;;;;;;;;;;;;;;;6266478;22;19923;-91
2023/10/02 02:53:16;;;;;;;;;;;;;;;;;;6267198;22;20347;-93
2023/10/02 02:55:39;;;;;;;;;;;;;;;;;;6264897;22;19994;-92
2023/10/02 02:58:07;;;;;;;;;;;;;;;;;;6267735;22;19957;-92
2023/10/02 03:00:35;;;;;;;;;;;;;;;;;;6265929;22;19918;-92
2023/10/02 03:03:01;;;;;;;;;;;;;;;;;;6265598;22;19938;-92
2023/10/02 03:05:41;;;;;;;;;;;;;;;;;;6263969;22;19919;-92
2023/10/02 03:08:08;;;;;;;;;;;;;;;;;;6267667;22;19915;-92
2023/10/02 03:10:37;;;;;;;;;;;;;;;;;;6264931;22;20007;-92
2023/10/02 03:13:03;;;;;;;;;;;;;;;;;;6242476;22;20239;-91
2023/10/02 03:15:48;;;;;;;;;;;;;;;;;;6266292;22;19923;-92
2023/10/02 03:18:36;;;;;;;;;;;;;;;;;;6244409;22;19929;-92
2023/10/02 03:23:38;;;;;;;;;;;;;;;;;;6266771;22;19944;-92
2023/10/02 03:26:07;;;;;;;;;;;;;;;;;;6269557;22;19952;-92
2023/10/02 03:28:33;;;;;;;;;;;;;;;;;;6241859;22;19915;-92
2023/10/02 03:31:00;;;;;;;;;;;;;;;;;;6270569;22;19922;-92
2023/10/02 03:33:31;;;;;;;;;;;;;;;;;;6244001;22;19923;-92
2023/10/02 03:35:58;;;;;;;;;;;;;;;;;;6244191;22;20163;-92
2023/10/02 03:38:24;;;;;;;;;;;;;;;;;;6244738;22;19915;-92
2023/10/02 03:40:50;;;;;;;;;;;;;;;;;;6240966;22;19918;-92
2023/10/02 03:43:29;;;;;;;;;;;;;;;;;;6269360;22;19915;-92
2023/10/02 03:45:55;;;;;;;;;;;;;;;;;;6268688;22;19915;-92
2023/10/02 03:48:21;;;;;;;;;;;;;;;;;;6269910;22;19969;-92
2023/10/02 03:50:48;;;;;;;;;;;;;;;;;;6240356;22;20258;-92
2023/10/02 03:53:28;;;;;;;;;;;;;;;;;;6244792;22;19926;-92
2023/10/02 03:55:59;;;;;;;;;;;;;;;;;;6244214;22;20005;-91
2023/10/02 03:58:38;;;;;;;;;;;;;;;;;;6244178;22;20409;-92
2023/10/02 04:01:08;;;;;;;;;;;;;;;;;;6241281;22;19918;-92
2023/10/02 04:03:34;;;;;;;;;;;;;;;;;;6266575;22;19990;-92
2023/10/02 04:06:05;;;;;;;;;;;;;;;;;;6269206;22;19930;-91
2023/10/02 04:08:37;;;;;;;;;;;;;;;;;;6241040;22;20254;-92
2023/10/02 04:11:03;;;;;;;;;;;;;;;;;;6244353;22;19925;-92
2023/10/02 04:13:32;;;;;;;;;;;;;;;;;;6240156;22;19918;-93
2023/10/02 04:18:45;;;;;;;;;;;;;;;;;;6268096;22;19950;-92
2023/10/02 04:21:12;;;;;;;;;;;;;;;;;;6269554;22;20017;-92
2023/10/02 04:23:40;;;;;;;;;;;;;;;;;;6264806;22;19981;-91
2023/10/02 04:26:06;;;;;;;;;;;;;;;;;;6243921;22;19919;-92
2023/10/02 04:28:49;;;;;;;;;;;;;;;;;;6263979;22;20318;-92
2023/10/02 04:31:20;;;;;;;;;;;;;;;;;;6242851;22;19919;-91
2023/10/02 04:33:52;;;;;;;;;;;;;;;;;;6266539;22;19915;-92
2023/10/02 04:36:24;;;;;;;;;;;;;;;;;;6268252;22;20300;-92
2023/10/02 04:38:55;;;;;;;;;;;;;;;;;;6267512;22;20298;-91
2023/10/02 04:41:27;;;;;;;;;;;;;;;;;;6268588;22;19973;-91
2023/10/02 04:43:57;;;;;;;;;;;;;;;;;;6269604;22;20297;-92
2023/10/02 04:46:25;;;;;;;;;;;;;;;;;;6244557;22;20020;-92
2023/10/02 04:48:59;;;;;;;;;;;;;;;;;;6243876;22;19923;-91
2023/10/02 04:51:28;;;;;;;;;;;;;;;;;;6245441;22;20395;-92
2023/10/02 04:53:56;;;;;;;;;;;;;;;;;;6267898;22;20294;-92
2023/10/02 04:56:24;;;;;;;;;;;;;;;;;;6242683;22;19915;-93
2023/10/02 04:58:51;;;;;;;;;;;;;;;;;;6266230;22;19923;-92
2023/10/02 05:01:29;;;;;;;;;;;;;;;;;;6268630;22;19958;-93
2023/10/02 05:03:55;;;;;;;;;;;;;;;;;;6243762;22;20252;-92
2023/10/02 05:11:50;;;;;;;;;;;;;;;;;;6267082;22;19918;-92
2023/10/02 05:14:18;;;;;;;;;;;;;;;;;;6267959;22;19923;-92
2023/10/02 05:16:46;;;;;;;;;;;;;;;;;;6266958;22;19922;-92
2023/10/02 05:19:15;;;;;;;;;;;;;;;;;;6243785;22;19929;-92
2023/10/02 05:21:50;;;;;;;;;;;;;;;;;;6267141;22;20282;-91
2023/10/02 05:24:16;;;;;;;;;;;;;;;;;;6269062;22;20449;-91
2023/10/02 05:26:44;;;;;;;;;;;;;;;;;;6239735;22;19919;-94
2023/10/02 05:29:12;;;;;;;;;;;;;;;;;;6265582;22;19919;-92
2023/10/02 05:31:40;;;;;;;;;;;;;;;;;;6238061;22;19986;-92
2023/10/02 05:34:06;;;;;;;;;;;;;;;;;;6244326;22;19926;-93
2023/10/02 05:36:32;;;;;;;;;;;;;;;;;;6242181;22;19982;-93
2023/10/02 05:42:05;;;;;;;;;;;;;;;;;;6225845;22;20294;-91
2023/10/02 05:44:31;;;;;;;;;;;;;;;;;;6262979;22;19977;-94
2023/10/02 05:47:07;;;;;;;;;;;;;;;;;;6241374;22;19927;-93
2023/10/02 05:49:33;;;;;;;;;;;;;;;;;;6264468;22;19922;-92
2023/10/02 05:52:00;;;;;;;;;;;;;;;;;;6268269;22;19919;-92
2023/10/02 05:54:29;;;;;;;;;;;;;;;;;;6240805;22;19930;-93
2023/10/02 05:57:08;;;;;;;;;;;;;;;;;;6267918;22;19918;-93
2023/10/02 05:59:43;;;;;;;;;;;;;;;;;;6264349;22;19915;-93
2023/10/02 06:02:11;;;;;;;;;;;;;;;;;;6239117;22;20298;-92
2023/10/02 06:04:37;;;;;;;;;;;;;;;;;;6265479;22;20511;-92
2023/10/02 06:07:03;;;;;;;;;;;;;;;;;;6242178;22;19925;-93
2023/10/02 06:09:43;;;;;;;;;;;;;;;;;;6240583;22;19925;-92
2023/10/02 06:12:11;;;;;;;;;;;;;;;;;;6267963;22;19925;-92
2023/10/02 06:14:42;;;;;;;;;;;;;;;;;;6263680;22;19926;-93
2023/10/02 06:17:16;;;;;;;;;;;;;;;;;;6267648;22;19915;-92
2023/10/02 06:19:45;;;;;;;;;;;;;;;;;;6265310;22;19919;-92
2023/10/02 06:22:13;;;;;;;;;;;;;;;;;;6267373;22;19945;-93
2023/10/02 06:24:39;;;;;;;;;;;;;;;;;;6264959;22;20445;-92
2023/10/02 06:27:07;;;;;;;;;;;;;;;;;;6241642;22;19923;-92
2023/10/02 06:29:35;;;;;;;;;;;;;;;;;;6238994;22;20038;-92
2023/10/02 06:32:11;;;;;;;;;;;;;;;;;;6263807;22;19930;-93
2023/10/02 06:34:37;;;;;;;;;;;;;;;;;;6237294;22;20002;-92
2023/10/02 06:37:07;;;;;;;;;;;;;;;;;;6240200;22;19919;-92
2023/10/02 06:39:35;;;;;;;;;;;;;;;;;;6264461;22;19918;-93
2023/10/02 06:42:04;;;;;;;;;;;;;;;;;;6265058;22;19942;-93
2023/10/02 06:44:34;;;;;;;;;;;;;;;;;;6236546;22;19918;-93
2023/10/02 06:47:00;;;;;;;;;;;;;;;;;;6266733;22;19919;-93
2023/10/02 06:49:26;;;;;;;;;;;;;;;;;;6266761;22;19915;-93
2023/10/02 06:51:52;;;;;;;;;;;;;;;;;;6264668;22;19914;-93
2023/10/02 06:54:18;;;;;;;;;;;;;;;;;;6241635;22;19923;-92
2023/10/02 06:56:44;;;;;;;;;;;;;;;;;;6265261;22;20354;-94
2023/10/02 06:59:10;;;;;;;;;;;;;;;;;;6241409;22;19931;-93
2023/10/02 07:01:36;;;;;;;;;;;;;;;;;;6266880;22;19947;-93
2023/10/02 07:04:11;;;;;;;;;;;;;;;;;;6265089;22;19923;-92
2023/10/02 07:06:38;;;;;;;;;;;;;;;;;;6240079;22;19918;-93
2023/10/02 07:09:10;;;;;;;;;;;;;;;;;;6268476;22;20319;-93
2023/10/02 07:11:36;;;;;;;;;;;;;;;;;;6245635;22;20403;-93
2023/10/02 07:14:04;;;;;;;;;;;;;;;;;;6243847;22;19918;-93
2023/10/02 07:16:30;;;;;;;;;;;;;;;;;;6265344;22;19925;-91
2023/10/02 07:18:58;;;;;;;;;;;;;;;;;;6287636;22;20123;-92
2023/10/02 07:21:26;;;;;;;;;;;;;;;;;;6293759;22;19918;-94
2023/10/02 07:23:52;;;;;;;;;;;;;;;;;;6265373;22;19968;-93
2023/10/02 07:26:45;;;;;;;;;;;;;;;;;;6295455;22;20343;-92
2023/10/02 07:29:07;;;;;;;;;;;;;;;;;;6293331;22;20359;-93
2023/10/02 07:31:32;;;;;;;;;;;;;;;;;;6291960;22;19919;-93
2023/10/02 07:33:58;;;;;;;;;;;;;;;;;;6293276;22;19919;-92
2023/10/02 07:36:32;;;;;;;;;;;;;;;;;;6292710;22;19966;-95
2023/10/02 07:39:00;;;;;;;;;;;;;;;;;;6266470;22;19953;-93
2023/10/02 07:41:28;;;;;;;;;;;;;;;;;;6291916;22;19922;-93
2023/10/02 07:43:54;;;;;;;;;;;;;;;;;;6290040;22;20285;-93
2023/10/02 07:46:21;;;;;;;;;;;;;;;;;;6289201;22;19946;-93
2023/10/02 07:49:00;;;;;;;;;;;;;;;;;;6262714;22;19919;-93
2023/10/02 07:51:36;;;;;;;;;;;;;;;;;;6291703;22;20229;-93
2023/10/02 07:54:02;;;;;;;;;;;;;;;;;;6292882;22;20336;-92
2023/10/02 07:56:29;;;;;;;;;;;;;;;;;;6290942;22;19980;-93
2023/10/02 07:58:55;;;;;;;;;;;;;;;;;;6294542;22;20401;-94
2023/10/02 08:01:23;;;;;;;;;;;;;;;;;;6291138;22;19923;-92
2023/10/02 08:03:49;;;;;;;;;;;;;;;;;;6264916;22;19919;-92
2023/10/02 08:06:21;;;;;;;;;;;;;;;;;;6294301;22;19919;-93
2023/10/02 08:08:54;;;;;;;;;;;;;;;;;;6265307;22;19919;-94
2023/10/02 08:11:20;;;;;;;;;;;;;;;;;;6293859;22;20623;-93
2023/10/02 08:13:48;;;;;;;;;;;;;;;;;;6266397;22;20267;-92
2023/10/02 08:16:15;;;;;;;;;;;;;;;;;;6267217;22;19969;-93
2023/10/02 08:19:10;;;;;;;;;;;;;;;;;;6291077;22;20000;-93
2023/10/02 08:21:36;;;;;;;;;;;;;;;;;;6266739;22;20366;-93
2023/10/02 08:24:03;;;;;;;;;;;;;;;;;;6294868;22;20275;-94
2023/10/02 08:26:38;;;;;;;;;;;;;;;;;;6290666;22;19926;-92
2023/10/02 08:29:04;;;;;;;;;;;;;;;;;;6292789;22;19918;-93
2023/10/02 08:31:32;;;;;;;;;;;;;;;;;;6265766;22;20299;-93
2023/10/02 08:34:05;;;;;;;;;;;;;;;;;;6268927;22;19949;-92
2023/10/02 08:36:31;;;;;;;;;;;;;;;;;;6264459;22;19941;-92
2023/10/02 08:38:59;;;;;;;;;;;;;;;;;;6266179;22;19915;-93
2023/10/02 08:41:25;;;;;;;;;;;;;;;;;;6292205;22;19994;-94
2023/10/02 08:43:53;;;;;;;;;;;;;;;;;;6292324;22;20371;-94
2023/10/02 08:46:21;;;;;;;;;;;;;;;;;;6294636;22;19915;-93
2023/10/02 08:48:54;;;;;;;;;;;;;;;;;;6266921;22;20538;-92
2023/10/02 08:51:29;;;;;;;;;;;;;;;;;;6297058;22;20387;-93
2023/10/02 08:53:56;;;;;;;;;;;;;;;;;;6270214;22;19915;-93
2023/10/02 08:56:21;;;;;;;;;;;;;;;;;;6272291;22;19942;-92
2023/10/02 08:59:14;;;;;;;;;;;;;;;;;;6289934;22;20785;-94
2023/10/02 09:01:34;;;;;;;;;;;;;;;;;;6290566;22;19950;-92
2023/10/02 09:04:21;;;;;;;;;;;;;;;;;;6295166;22;19919;-93
2023/10/02 09:06:49;;;;;;;;;;;;;;;;;;6292717;22;20269;-93
2023/10/02 09:09:22;;;;;;;;;;;;;;;;;;6269493;22;20327;-94
2023/10/02 09:11:57;;;;;;;;;;;;;;;;;;6292630;22;19922;-93
2023/10/02 09:14:45;;;;;;;;;;;;;;;;;;6294174;22;20445;-93
2023/10/02 09:17:25;;;;;;;;;;;;;;;;;;6293678;22;19918;-93
2023/10/02 09:19:53;;;;;;;;;;;;;;;;;;6264680;22;19919;-93
2023/10/02 09:22:20;;;;;;;;;;;;;;;;;;6243607;22;19961;-92
2023/10/02 09:24:55;;;;;;;;;;;;;;;;;;6266823;22;20313;-93
2023/10/02 09:27:25;;;;;;;;;;;;;;;;;;6242166;22;19985;-93
2023/10/02 09:30:36;;;;;;;;;;;;;;;;;;6291039;22;19926;-93
2023/10/02 09:32:50;;;;;;;;;;;;;;;;;;6252912;22;19925;-93
2023/10/02 09:35:21;;;;;;;;;;;;;;;;;;6265647;22;19991;-94
2023/10/02 09:37:55;;;;;;;;;;;;;;;;;;6237299;22;20422;-94
2023/10/02 09:40:21;;;;;;;;;;;;;;;;;;6268401;22;19923;-94
2023/10/02 09:42:48;;;;;;;;;;;;;;;;;;6239653;22;20008;-94
2023/10/02 09:45:14;;;;;;;;;;;;;;;;;;6267031;22;19922;-92
2023/10/02 09:47:42;;;;;;;;;;;;;;;;;;6240117;22;19994;-94
2023/10/02 09:50:11;;;;;;;;;;;;;;;;;;6266809;22;19925;-94
2023/10/02 09:52:39;;;;;;;;;;;;;;;;;;6235833;22;19930;-93
2023/10/02 09:55:07;;;;;;;;;;;;;;;;;;6265702;22;19919;-93
2023/10/02 09:57:33;;;;;;;;;;;;;;;;;;6264079;22;19985;-93
2023/10/02 09:59:59;;;;;;;;;;;;;;;;;;6266495;22;20466;-93
2023/10/02 10:04:54;;;;;;;;;;;;;;;;;;6263965;22;19922;-93
2023/10/02 10:07:37;;;;;;;;;;;;;;;;;;6242023;22;19919;-93
2023/10/02 10:10:07;;;;;;;;;;;;;;;;;;6267588;22;19988;-93
2023/10/02 10:12:50;;;;;;;;;;;;;;;;;;6264338;22;20339;-93
2023/10/02 10:15:23;;;;;;;;;;;;;;;;;;6241343;22;19923;-92
2023/10/02 10:17:49;;;;;;;;;;;;;;;;;;6268530;22;20002;-94
2023/10/02 10:20:18;;;;;;;;;;;;;;;;;;6294041;22;19950;-94
2023/10/02 10:22:51;;;;;;;;;;;;;;;;;;6264438;22;19923;-93
2023/10/02 10:27:54;;;;;;;;;;;;;;;;;;6285612;22;20286;-93
2023/10/02 10:30:33;;;;;;;;;;;;;;;;;;6265523;22;19925;-93
2023/10/02 10:33:01;;;;;;;;;;;;;;;;;;6290996;22;19919;-94
2023/10/02 10:35:27;;;;;;;;;;;;;;;;;;6293533;22;19997;-93
2023/10/02 10:37:56;;;;;;;;;;;;;;;;;;6266802;22;19926;-94
2023/10/02 10:40:43;;;;;;;;;;;;;;;;;;6268767;22;19918;-94
2023/10/02 10:43:12;;;;;;;;;;;;;;;;;;6266657;22;19919;-94
2023/10/02 10:45:39;;;;;;;;;;;;;;;;;;6263779;22;19918;-92
2023/10/02 10:48:18;;;;;;;;;;;;;;;;;;6292900;22;20293;-93
2023/10/02 10:50:56;;;;;;;;;;;;;;;;;;6266294;22;19926;-93
2023/10/02 10:53:26;;;;;;;;;;;;;;;;;;6267128;22;19919;-93
2023/10/02 10:55:54;;;;;;;;;;;;;;;;;;6291201;22;19919;-93
2023/10/02 10:58:21;;;;;;;;;;;;;;;;;;6266941;22;19927;-94
2023/10/02 11:00:47;;;;;;;;;;;;;;;;;;6263534;22;19923;-93
2023/10/02 11:03:19;;;;;;;;;;;;;;;;;;6292640;22;19915;-94
2023/10/02 11:05:45;;;;;;;;;;;;;;;;;;6292109;22;20400;-94
2023/10/02 11:08:23;;;;;;;;;;;;;;;;;;6265616;22;19926;-93
2023/10/02 11:10:49;;;;;;;;;;;;;;;;;;6262919;22;19957;-93
2023/10/02 11:13:15;;;;;;;;;;;;;;;;;;6268447;22;19951;-93
2023/10/02 11:15:50;;;;;;;;;;;;;;;;;;6291101;22;20228;-93
2023/10/02 11:18:19;;;;;;;;;;;;;;;;;;6269607;22;19993;-93
2023/10/02 11:20:49;;;;;;;;;;;;;;;;;;6266621;22;19994;-94
2023/10/02 11:23:22;;;;;;;;;;;;;;;;;;6310672;22;19968;-93
2023/10/02 11:25:48;;;;;;;;;;;;;;;;;;6265469;22;19925;-93
2023/10/02 11:28:16;;;;;;;;;;;;;;;;;;6294731;22;19918;-94
2023/10/02 11:30:46;;;;;;;;;;;;;;;;;;6294404;22;19919;-92
2023/10/02 11:33:12;;;;;;;;;;;;;;;;;;6295623;22;19918;-94
2023/10/02 11:35:38;;;;;;;;;;;;;;;;;;6268802;22;20346;-94
2023/10/02 11:38:04;;;;;;;;;;;;;;;;;;6272749;22;20248;-93
2023/10/02 11:40:32;;;;;;;;;;;;;;;;;;6270584;22;19919;-93
2023/10/02 11:42:59;;;;;;;;;;;;;;;;;;6274253;22;19920;-93
2023/10/02 11:45:26;;;;;;;;;;;;;;;;;;6298319;22;19919;-94
2023/10/02 11:47:52;;;;;;;;;;;;;;;;;;6272373;22;19923;-93
2023/10/02 11:50:18;;;;;;;;;;;;;;;;;;6299081;22;19925;-92
2023/10/02 11:52:44;;;;;;;;;;;;;;;;;;6294372;22;20337;-94
2023/10/02 11:55:10;;;;;;;;;;;;;;;;;;6296666;22;19927;-94
2023/10/02 11:57:37;;;;;;;;;;;;;;;;;;6295036;22;19918;-94
2023/10/02 12:00:08;;;;;;;;;;;;;;;;;;6297591;22;19915;-94
2023/10/02 12:02:34;;;;;;;;;;;;;;;;;;6269205;22;20565;-92
2023/10/02 12:05:00;;;;;;;;;;;;;;;;;;6297779;22;19923;-93
2023/10/02 12:07:26;;;;;;;;;;;;;;;;;;6296188;22;20026;-93
2023/10/02 12:09:53;;;;;;;;;;;;;;;;;;6270380;22;19919;-92
2023/10/02 12:12:19;;;;;;;;;;;;;;;;;;6271343;22;19946;-92
2023/10/02 12:14:45;;;;;;;;;;;;;;;;;;6268824;22;20314;-93
2023/10/02 12:17:14;;;;;;;;;;;;;;;;;;6295839;22;19930;-93
2023/10/02 12:19:41;;;;;;;;;;;;;;;;;;6241450;22;19919;-94
2023/10/02 12:22:07;;;;;;;;;;;;;;;;;;6246211;22;19919;-93
2023/10/02 12:24:34;;;;;;;;;;;;;;;;;;6242054;22;20069;-92
2023/10/02 12:27:00;;;;;;;;;;;;;;;;;;6270226;22;19914;-92
2023/10/02 12:29:26;;;;;;;;;;;;;;;;;;6270184;22;19914;-92
2023/10/02 12:31:53;;;;;;;;;;;;;;;;;;6244467;22;19915;-93
2023/10/02 12:34:19;;;;;;;;;;;;;;;;;;6246106;22;19918;-93
2023/10/02 12:36:44;;;;;;;;;;;;;;;;;;6245105;22;20274;-93
2023/10/02 12:39:12;;;;;;;;;;;;;;;;;;6246684;22;19944;-92
2023/10/02 12:41:38;;;;;;;;;;;;;;;;;;6242764;22;19959;-93
2023/10/02 12:44:04;;;;;;;;;;;;;;;;;;6270422;22;19919;-93
2023/10/02 12:46:30;;;;;;;;;;;;;;;;;;6242595;22;19929;-93
2023/10/02 12:49:01;;;;;;;;;;;;;;;;;;6246232;22;19922;-92
2023/10/02 12:51:27;;;;;;;;;;;;;;;;;;6270978;22;19919;-93
2023/10/02 12:53:53;;;;;;;;;;;;;;;;;;6243154;22;19918;-93
2023/10/02 12:56:19;;;;;;;;;;;;;;;;;;6269155;22;19960;-93
2023/10/02 12:58:49;;;;;;;;;;;;;;;;;;6240831;22;19918;-93
2023/10/02 13:01:14;;;;;;;;;;;;;;;;;;6245384;22;19990;-93
2023/10/02 13:03:43;;;;;;;;;;;;;;;;;;6268277;22;20391;-93
2023/10/02 13:06:13;;;;;;;;;;;;;;;;;;6271138;22;19945;-94
2023/10/02 13:08:40;;;;;;;;;;;;;;;;;;6267755;22;19919;-92
2023/10/02 13:11:06;;;;;;;;;;;;;;;;;;6264418;22;19954;-92
2023/10/02 13:13:33;;;;;;;;;;;;;;;;;;6239574;22;19954;-92
2023/10/02 13:16:00;;;;;;;;;;;;;;;;;;6266090;22;20337;-93
2023/10/02 13:18:27;;;;;;;;;;;;;;;;;;6275123;22;19923;-95
2023/10/02 13:20:55;;;;;;;;;;;;;;;;;;6286651;22;19993;-94
2023/10/02 13:23:22;;;;;;;;;;;;;;;;;;6289103;22;19923;-93
2023/10/02 13:25:48;;;;;;;;;;;;;;;;;;6262078;22;20478;-94
2023/10/02 13:28:14;;;;;;;;;;;;;;;;;;6262433;22;19926;-93
2023/10/02 13:30:41;;;;;;;;;;;;;;;;;;6263134;22;19923;-94
2023/10/02 13:33:07;;;;;;;;;;;;;;;;;;6290870;22;20255;-94
2023/10/02 13:35:33;;;;;;;;;;;;;;;;;;6263522;22;19923;-93
2023/10/02 13:38:00;;;;;;;;;;;;;;;;;;6266502;22;19925;-93
2023/10/02 13:40:31;;;;;;;;;;;;;;;;;;6265141;22;19918;-93
2023/10/02 13:42:57;;;;;;;;;;;;;;;;;;6259707;22;19926;-95
2023/10/02 13:45:24;;;;;;;;;;;;;;;;;;6287979;22;19941;-93
2023/10/02 13:47:52;;;;;;;;;;;;;;;;;;6260179;22;19923;-93
2023/10/02 13:50:19;;;;;;;;;;;;;;;;;;6261377;22;20666;-93
2023/10/02 13:52:45;;;;;;;;;;;;;;;;;;6260150;22;19922;-93
2023/10/02 13:55:22;;;;;;;;;;;;;;;;;;6260442;22;19926;-92
2023/10/02 13:57:48;;;;;;;;;;;;;;;;;;6261956;22;20694;-92
2023/10/02 14:00:17;;;;;;;;;;;;;;;;;;6267599;22;19919;-95
2023/10/02 14:02:43;;;;;;;;;;;;;;;;;;6261053;22;19919;-93
2023/10/02 14:05:10;;;;;;;;;;;;;;;;;;6261142;22;19919;-93
2023/10/02 14:33:00;;;;;;;;;;;;;;;;;;;;;
2023/10/02 14:48:44;;;;;;;;;;;;;;;;;;6215428;22;19919;-93
2023/10/02 14:51:13;;;;;;;;;;;;;;;;;;6260033;22;20018;-94
2023/10/02 14:56:40;;;;;;;;;;;;;;;;;;6216851;22;20424;-94
2023/10/02 14:59:09;;;;;;;;;;;;;;;;;;6206351;22;20312;-93
2023/10/02 15:01:49;;;;;;;;;;;;;;;;;;6231259;22;19919;-93
2023/10/02 15:04:25;;;;;;;;;;;;;;;;;;6258714;22;20355;-94
2023/10/02 15:06:57;;;;;;;;;;;;;;;;;;6205102;22;20289;-94
2023/10/02 15:09:30;;;;;;;;;;;;;;;;;;6204438;22;20056;-93
2023/10/02 15:11:59;;;;;;;;;;;;;;;;;;6208783;22;19945;-95
2023/10/02 15:14:37;;;;;;;;;;;;;;;;;;6207835;22;19923;-94
2023/10/02 15:17:05;;;;;;;;;;;;;;;;;;6208196;22;20052;-94
2023/10/02 15:19:40;;;;;;;;;;;;;;;;;;6220188;22;19923;-94
2023/10/02 15:22:21;;;;;;;;;;;;;;;;;;6241575;22;19926;-93
2023/10/02 15:24:56;;;;;;;;;;;;;;;;;;6241727;22;19964;-93
2023/10/02 15:27:46;;;;;;;;;;;;;;;;;;6262296;22;19918;-93
2023/10/02 15:30:23;;;;;;;;;;;;;;;;;;6239633;22;20366;-93
2023/10/02 15:32:49;;;;;;;;;;;;;;;;;;6238286;22;19926;-95
2023/10/02 15:35:19;;;;;;;;;;;;;;;;;;6238661;22;19923;-93
2023/10/02 15:37:48;;;;;;;;;;;;;;;;;;6240379;22;19919;-94
2023/10/02 15:40:22;;;;;;;;;;;;;;;;;;6241958;22;20004;-93
2023/10/02 15:46:03;;;;;;;;;;;;;;;;;;6302431;22;19918;-94
2023/10/02 16:19:38;;;;;;;;;;;;;;;;;;6105341;23;19932;-93
2023/10/02 16:28:44;;;;;;;;;;;;;;;;;;6007794;23;19922;-94
2023/10/02 16:31:11;;;;;;;;;;;;;;;;;;6015598;23;19993;-95
2023/10/02 16:33:39;;;;;;;;;;;;;;;;;;6072589;22;19952;-92
2023/10/02 16:36:19;;;;;;;;;;;;;;;;;;6237626;22;20278;-92
2023/10/02 16:39:02;;;;;;;;;;;;;;;;;;6243172;22;19915;-93
2023/10/02 16:41:40;;;;;;;;;;;;;;;;;;6255121;22;20295;-92
2023/10/02 16:44:12;;;;;;;;;;;;;;;;;;6239585;22;19919;-92
2023/10/02 16:46:49;;;;;;;;;;;;;;;;;;6240271;22;19972;-92
2023/10/02 16:49:44;;;;;;;;;;;;;;;;;;6240906;22;20362;-92
2023/10/02 16:52:18;;;;;;;;;;;;;;;;;;6265498;22;19961;-92
2023/10/02 16:57:46;;;;;;;;;;;;;;;;;;6263598;22;19919;-92
2023/10/02 17:00:27;;;;;;;;;;;;;;;;;;6241989;22;19919;-92
2023/10/02 17:02:57;;;;;;;;;;;;;;;;;;6266085;22;20675;-92
2023/10/02 17:05:30;;;;;;;;;;;;;;;;;;6240663;22;19919;-92
2023/10/02 17:08:00;;;;;;;;;;;;;;;;;;6263092;22;19926;-93
2023/10/02 17:10:46;;;;;;;;;;;;;;;;;;6292637;22;19925;-92
2023/10/02 17:13:14;;;;;;;;;;;;;;;;;;6237019;22;19919;-93
2023/10/02 17:15:49;;;;;;;;;;;;;;;;;;6238320;22;20010;-92
2023/10/02 17:18:25;;;;;;;;;;;;;;;;;;6239088;22;19918;-91
2023/10/02 17:21:01;;;;;;;;;;;;;;;;;;6239437;22;19953;-92
2023/10/02 17:23:40;;;;;;;;;;;;;;;;;;6273681;22;23590;-92
2023/10/02 17:26:25;;;;;;;;;;;;;;;;;;6239671;22;20327;-92
2023/10/02 17:29:02;;;;;;;;;;;;;;;;;;6268012;22;19923;-93
2023/10/02 17:31:49;;;;;;;;;;;;;;;;;;6302744;22;19957;-93
2023/10/02 17:34:29;;;;;;;;;;;;;;;;;;;;;
2023/10/02 17:37:04;;;;;;;;;;;;;;;;;;6266714;22;19923;-94
2023/10/02 17:39:33;;;;;;;;;;;;;;;;;;6238430;22;19918;-93
2023/10/02 17:41:59;;;;;;;;;;;;;;;;;;6252638;22;20339;-93
2023/10/02 17:44:40;;;;;;;;;;;;;;;;;;6255615;22;19919;-93
2023/10/02 17:47:17;;;;;;;;;;;;;;;;;;6254783;22;19915;-93
2023/10/02 17:49:46;;;;;;;;;;;;;;;;;;6246810;22;19915;-92
2023/10/02 17:52:13;;;;;;;;;;;;;;;;;;6241252;22;19918;-92
2023/10/02 17:54:55;;;;;;;;;;;;;;;;;;6239855;22;19923;-92
2023/10/02 17:57:25;;;;;;;;;;;;;;;;;;6263963;22;20015;-92
2023/10/02 17:59:51;;;;;;;;;;;;;;;;;;6265751;22;19918;-91
2023/10/02 18:02:23;;;;;;;;;;;;;;;;;;6264992;22;19919;-91
2023/10/02 18:04:51;;;;;;;;;;;;;;;;;;6254384;22;19919;-92
2023/10/02 18:07:17;;;;;;;;;;;;;;;;;;6239469;22;19919;-93
2023/10/02 18:09:50;;;;;;;;;;;;;;;;;;6236192;22;20409;-92
2023/10/02 18:15:53;;;;;;;;;;;;;;;;;;6249757;22;20008;-92
2023/10/02 18:31:39;;;;;;;;;;;;;;;;;;6063355;23;19978;-92
2023/10/02 18:40:56;;;;;;;;;;;;;;;;;;;;;
2023/10/02 18:50:31;;;;;;;;;;;;;;;;;;;;;
2023/10/02 18:53:06;;;;;;;;;;;;;;;;;;5987594;23;20607;-92
2023/10/02 18:55:39;;;;;;;;;;;;;;;;;;6069316;23;19925;-92
2023/10/02 18:58:13;;;;;;;;;;;;;;;;;;6050943;23;19977;-92
2023/10/02 19:00:39;;;;;;;;;;;;;;;;;;6062096;23;19921;-92
2023/10/02 19:03:08;;;;;;;;;;;;;;;;;;6116353;23;20092;-92
2023/10/02 19:05:36;;;;;;;;;;;;;;;;;;6114872;23;19943;-92
2023/10/02 19:08:20;;;;;;;;;;;;;;;;;;6117183;23;20382;-92
2023/10/02 19:10:59;;;;;;;;;;;;;;;;;;;;;
2023/10/02 19:13:25;;;;;;;;;;;;;;;;;;6141392;23;19921;-91
2023/10/02 19:16:04;;;;;;;;;;;;;;;;;;6118238;23;20000;-93
2023/10/02 19:18:48;;;;;;;;;;;;;;;;;;6202256;22;19923;-93
2023/10/02 19:21:17;;;;;;;;;;;;;;;;;;6221792;22;19926;-92
2023/10/02 19:23:57;;;;;;;;;;;;;;;;;;;;;
2023/10/02 19:26:59;;;;;;;;;;;;;;;;;;6226754;22;19985;-92
2023/10/02 19:29:29;;;;;;;;;;;;;;;;;;6234860;22;20002;-92